Time;durP1;ratioP1;P1;durP2;ratioP2;P2;SDS_P1;SDS_P2;PMS_P1;PMS_P2;Temp;Humidity;BMP_temperature;BMP_pressure;BME280_temperature;BME280_humidity;BME280_pressure;Samples;Min_cycle;Max_cycle;Signal;HPM_P1;HPM_P2
2021/06/05 00:00:55;;;;;;;;;;;;;;;;;;1478976;40;7238;-64
2021/06/05 00:01:59;;;;;;;;;;;;;;;;;;1479305;39;7145;-62
2021/06/05 00:03:02;;;;;;;;;;;;;;;;;;1478879;40;7978;-62
2021/06/05 00:04:05;;;;;;;;;;;;;;;;;;1479176;40;6999;-65
2021/06/05 00:05:08;;;;;;;;;;;;;;;;;;1479066;40;7885;-64
2021/06/05 00:06:14;;;;;;;;;;;;;;;;;;1479171;40;7040;-63
2021/06/05 00:07:16;;;;;;;;;;;;;;;;;;1478652;40;7003;-61
2021/06/05 00:08:20;;;;;;;;;;;;;;;;;;1479401;40;7035;-62
2021/06/05 00:09:22;;;;;;;;;;;;;;;;;;1479409;40;7023;-64
2021/06/05 00:10:30;;;;;;;;;;;;;;;;;;1479482;40;7886;-64
2021/06/05 00:11:33;;;;;;;;;;;;;;;;;;1479110;40;7121;-63
2021/06/05 00:12:35;;;;;;;;;;;;;;;;;;1479169;40;6996;-65
2021/06/05 00:13:41;;;;;;;;;;;;;;;;;;1479055;40;7967;-66
2021/06/05 00:14:43;;;;;;;;;;;;;;;;;;1479419;40;7016;-65
2021/06/05 00:15:47;;;;;;;;;;;;;;;;;;1479218;40;7027;-62
2021/06/05 00:16:50;;;;;;;;;;;;;;;;;;1481935;40;7186;-62
2021/06/05 00:17:52;;;;;;;;;;;;;;;;;;1481045;40;7048;-62
2021/06/05 00:18:55;;;;;;;;;;;;;;;;;;1478927;40;7011;-67
2021/06/05 00:19:57;;;;;;;;;;;;;;;;;;1483146;40;7959;-64
2021/06/05 00:20:59;;;;;;;;;;;;;;;;;;1479933;40;7253;-66
2021/06/05 00:22:02;;;;;;;;;;;;;;;;;;1482427;40;7963;-69
2021/06/05 00:23:07;;;;;;;;;;;;;;;;;;1481149;40;7043;-65
2021/06/05 00:24:10;;;;;;;;;;;;;;;;;;1478910;40;7000;-65
2021/06/05 00:25:14;;;;;;;;;;;;;;;;;;1478787;40;7012;-62
2021/06/05 00:26:17;;;;;;;;;;;;;;;;;;1482408;40;7047;-63
2021/06/05 00:27:19;;;;;;;;;;;;;;;;;;1482729;40;7012;-61
2021/06/05 00:28:23;;;;;;;;;;;;;;;;;;1479276;40;7043;-63
2021/06/05 00:29:25;;;;;;;;;;;;;;;;;;1479092;40;7020;-65
2021/06/05 00:30:28;;;;;;;;;;;;;;;;;;1478557;40;7007;-64
2021/06/05 00:31:31;;;;;;;;;;;;;;;;;;1478843;40;7931;-64
2021/06/05 00:32:34;;;;;;;;;;;;;;;;;;1478952;40;7030;-63
2021/06/05 00:33:37;;;;;;;;;;;;;;;;;;1483410;40;7031;-66
2021/06/05 00:34:39;;;;;;;;;;;;;;;;;;1483312;40;7214;-63
2021/06/05 00:35:42;;;;;;;;;;;;;;;;;;1483359;40;7023;-64
2021/06/05 00:36:44;;;;;;;;;;;;;;;;;;1482420;40;7050;-64
2021/06/05 00:37:46;;;;;;;;;;;;;;;;;;1482677;40;7931;-67
2021/06/05 00:38:49;;;;;;;;;;;;;;;;;;1482876;40;7031;-65
2021/06/05 00:39:51;;;;;;;;;;;;;;;;;;1483305;40;6999;-62
2021/06/05 00:40:56;;;;;;;;;;;;;;;;;;1483135;40;7003;-63
2021/06/05 00:41:58;;;;;;;;;;;;;;;;;;1483493;40;7051;-66
2021/06/05 00:43:01;;;;;;;;;;;;;;;;;;1483250;40;7126;-63
2021/06/05 00:44:06;;;;;;;;;;;;;;;;;;1483289;40;7011;-66
2021/06/05 00:45:10;;;;;;;;;;;;;;;;;;1480485;40;6995;-64
2021/06/05 00:46:14;;;;;;;;;;;;;;;;;;1478896;40;8758;-66
2021/06/05 00:47:17;;;;;;;;;;;;;;;;;;1485189;40;7948;-64
2021/06/05 00:48:22;;;;;;;;;;;;;;;;;;1486627;40;7007;-64
2021/06/05 00:49:24;;;;;;;;;;;;;;;;;;1483032;40;7282;-62
2021/06/05 00:50:28;;;;;;;;;;;;;;;;;;1483035;40;7911;-66
2021/06/05 00:51:36;;;;;;;;;;;;;;;;;;1483144;40;7003;-63
2021/06/05 00:52:39;;;;;;;;;;;;;;;;;;1478818;40;7040;-64
2021/06/05 00:53:42;;;;;;;;;;;;;;;;;;1479334;40;7003;-65
2021/06/05 00:54:44;;;;;;;;;;;;;;;;;;1479096;40;7100;-64
2021/06/05 00:55:48;;;;;;;;;;;;;;;;;;1478889;40;6999;-63
2021/06/05 00:56:53;;;;;;;;;;;;;;;;;;1479068;40;7884;-65
2021/06/05 00:57:56;;;;;;;;;;;;;;;;;;1478909;40;7003;-64
2021/06/05 00:58:59;;;;;;;;;;;;;;;;;;1478996;40;8079;-64
2021/06/05 01:00:03;;;;;;;;;;;;;;;;;;1478884;40;7131;-66
2021/06/05 01:01:15;;;;;;;;;;;;;;;;;;1478823;40;7008;-64
2021/06/05 01:02:17;;;;;;;;;;;;;;;;;;1479009;40;7003;-64
2021/06/05 01:03:21;;;;;;;;;;;;;;;;;;1478771;40;7943;-63
2021/06/05 01:04:24;;;;;;;;;;;;;;;;;;1478881;40;7004;-63
2021/06/05 01:05:27;;;;;;;;;;;;;;;;;;1478774;40;7915;-61
2021/06/05 01:06:37;;;;;;;;;;;;;;;;;;1478357;40;7008;-66
2021/06/05 01:07:40;;;;;;;;;;;;;;;;;;1478910;40;7004;-65
2021/06/05 01:09:00;;;;;;;;;;;;;;;;;;1479137;40;7108;-65
2021/06/05 01:10:02;;;;;;;;;;;;;;;;;;1478993;40;7016;-65
2021/06/05 01:11:16;;;;;;;;;;;;;;;;;;1478844;40;7004;-63
2021/06/05 01:12:42;;;;;;;;;;;;;;;;;;1479359;39;7039;-63
2021/06/05 01:13:49;;;;;;;;;;;;;;;;;;1476760;40;7958;-66
2021/06/05 01:14:57;;;;;;;;;;;;;;;;;;1478795;40;7900;-63
2021/06/05 01:16:04;;;;;;;;;;;;;;;;;;1478665;40;7145;-64
2021/06/05 01:17:10;;;;;;;;;;;;;;;;;;1479015;40;7918;-65
2021/06/05 01:18:18;;;;;;;;;;;;;;;;;;1478627;40;7222;-65
2021/06/05 01:19:23;;;;;;;;;;;;;;;;;;1478834;40;7102;-62
2021/06/05 01:20:44;;;;;;;;;;;;;;;;;;1478503;40;8068;-64
2021/06/05 01:22:03;;;;;;;;;;;;;;;;;;1480917;40;7011;-62
2021/06/05 01:23:17;;;;;;;;;;;;;;;;;;1480535;40;7003;-63
2021/06/05 01:24:38;;;;;;;;;;;;;;;;;;1478357;40;7008;-65
2021/06/05 01:25:47;;;;;;;;;;;;;;;;;;1480888;40;8850;-64
2021/06/05 01:26:59;;;;;;;;;;;;;;;;;;1478282;40;7040;-62
2021/06/05 01:28:23;;;;;;;;;;;;;;;;;;1478586;40;7003;-63
2021/06/05 01:29:30;;;;;;;;;;;;;;;;;;1478441;40;7122;-62
2021/06/05 01:30:40;;;;;;;;;;;;;;;;;;1482179;40;7915;-64
2021/06/05 01:31:50;;;;;;;;;;;;;;;;;;1482742;40;7051;-66
2021/06/05 01:32:55;;;;;;;;;;;;;;;;;;1482379;40;7011;-62
2021/06/05 01:34:01;;;;;;;;;;;;;;;;;;1478942;40;7139;-65
2021/06/05 01:35:04;;;;;;;;;;;;;;;;;;1481263;40;7592;-64
2021/06/05 01:36:08;;;;;;;;;;;;;;;;;;1483059;40;7107;-61
2021/06/05 01:37:13;;;;;;;;;;;;;;;;;;1482208;40;7000;-64
2021/06/05 01:38:17;;;;;;;;;;;;;;;;;;1482704;40;7079;-63
2021/06/05 01:39:29;;;;;;;;;;;;;;;;;;1482925;40;7919;-66
2021/06/05 01:40:32;;;;;;;;;;;;;;;;;;1482725;40;7935;-64
2021/06/05 01:41:37;;;;;;;;;;;;;;;;;;1482821;40;7009;-65
2021/06/05 01:42:40;;;;;;;;;;;;;;;;;;1482949;40;7003;-64
2021/06/05 01:43:45;;;;;;;;;;;;;;;;;;1483149;40;7131;-65
2021/06/05 01:44:51;;;;;;;;;;;;;;;;;;1478596;40;7012;-65
2021/06/05 01:45:55;;;;;;;;;;;;;;;;;;1478852;40;7079;-64
2021/06/05 01:46:58;;;;;;;;;;;;;;;;;;1479601;40;6999;-65
2021/06/05 01:48:01;;;;;;;;;;;;;;;;;;1481829;40;7109;-63
2021/06/05 01:49:04;;;;;;;;;;;;;;;;;;1478804;40;7847;-66
2021/06/05 01:50:10;;;;;;;;;;;;;;;;;;1478832;40;7547;-64
2021/06/05 01:51:17;;;;;;;;;;;;;;;;;;1478520;40;7012;-64
2021/06/05 01:52:31;;;;;;;;;;;;;;;;;;1479045;40;7182;-65
2021/06/05 01:53:38;;;;;;;;;;;;;;;;;;1478773;40;7007;-65
2021/06/05 01:54:46;;;;;;;;;;;;;;;;;;1478902;40;7873;-62
2021/06/05 01:56:12;;;;;;;;;;;;;;;;;;1478799;40;7039;-62
2021/06/05 01:57:17;;;;;;;;;;;;;;;;;;1478059;40;7035;-67
2021/06/05 01:58:21;;;;;;;;;;;;;;;;;;1478815;40;7016;-63
2021/06/05 01:59:24;;;;;;;;;;;;;;;;;;1478255;40;8026;-63
2021/06/05 02:00:29;;;;;;;;;;;;;;;;;;1478749;40;7214;-64
2021/06/05 02:01:32;;;;;;;;;;;;;;;;;;1478932;40;7975;-66
2021/06/05 02:02:34;;;;;;;;;;;;;;;;;;1478543;40;7007;-63
2021/06/05 02:03:37;;;;;;;;;;;;;;;;;;1478528;40;7035;-63
2021/06/05 02:04:39;;;;;;;;;;;;;;;;;;1479031;40;7035;-62
2021/06/05 02:05:43;;;;;;;;;;;;;;;;;;1478991;40;7035;-65
2021/06/05 02:06:47;;;;;;;;;;;;;;;;;;1478854;40;7123;-66
2021/06/05 02:07:52;;;;;;;;;;;;;;;;;;1478860;40;7023;-64
2021/06/05 02:08:54;;;;;;;;;;;;;;;;;;1478790;40;7043;-65
2021/06/05 02:09:57;;;;;;;;;;;;;;;;;;1478943;40;7048;-61
2021/06/05 02:11:02;;;;;;;;;;;;;;;;;;1478905;40;7008;-66
2021/06/05 02:12:13;;;;;;;;;;;;;;;;;;1478677;40;7066;-64
2021/06/05 02:13:19;;;;;;;;;;;;;;;;;;1478943;40;7968;-63
2021/06/05 02:14:30;;;;;;;;;;;;;;;;;;1478693;40;7167;-63
2021/06/05 02:15:42;;;;;;;;;;;;;;;;;;1479071;40;7115;-63
2021/06/05 02:16:48;;;;;;;;;;;;;;;;;;1478771;40;7000;-62
2021/06/05 02:17:51;;;;;;;;;;;;;;;;;;1481589;40;7039;-63
2021/06/05 02:18:56;;;;;;;;;;;;;;;;;;1482149;40;7007;-65
2021/06/05 02:20:02;;;;;;;;;;;;;;;;;;1479557;40;7970;-62
2021/06/05 02:21:08;;;;;;;;;;;;;;;;;;1479306;40;7039;-65
2021/06/05 02:22:15;;;;;;;;;;;;;;;;;;1479008;40;7152;-62
2021/06/05 02:23:21;;;;;;;;;;;;;;;;;;1479287;40;8333;-64
2021/06/05 02:24:28;;;;;;;;;;;;;;;;;;1479600;40;7964;-62
2021/06/05 02:25:30;;;;;;;;;;;;;;;;;;1478867;40;7137;-65
2021/06/05 02:26:35;;;;;;;;;;;;;;;;;;1479790;40;7047;-64
2021/06/05 02:27:55;;;;;;;;;;;;;;;;;;1482266;40;7007;-66
2021/06/05 02:28:59;;;;;;;;;;;;;;;;;;1479101;40;7050;-64
2021/06/05 02:30:01;;;;;;;;;;;;;;;;;;1479406;40;7898;-69
2021/06/05 02:31:05;;;;;;;;;;;;;;;;;;1478741;40;7008;-61
2021/06/05 02:32:16;;;;;;;;;;;;;;;;;;1479243;40;7039;-65
2021/06/05 02:33:18;;;;;;;;;;;;;;;;;;1479221;40;7120;-64
2021/06/05 02:34:24;;;;;;;;;;;;;;;;;;1481165;40;7281;-62
2021/06/05 02:35:32;;;;;;;;;;;;;;;;;;1479008;40;7100;-67
2021/06/05 02:36:41;;;;;;;;;;;;;;;;;;1478522;40;7031;-63
2021/06/05 02:37:44;;;;;;;;;;;;;;;;;;1479233;40;7946;-61
2021/06/05 02:38:49;;;;;;;;;;;;;;;;;;1479781;40;7020;-64
2021/06/05 02:40:00;;;;;;;;;;;;;;;;;;1479824;40;7109;-64
2021/06/05 02:41:07;;;;;;;;;;;;;;;;;;1479141;40;7039;-65
2021/06/05 02:42:12;;;;;;;;;;;;;;;;;;1479610;40;8891;-62
2021/06/05 02:43:16;;;;;;;;;;;;;;;;;;1479650;40;7024;-65
2021/06/05 02:44:23;;;;;;;;;;;;;;;;;;1479453;40;7016;-65
2021/06/05 02:45:35;;;;;;;;;;;;;;;;;;1479278;40;7035;-64
2021/06/05 02:46:38;;;;;;;;;;;;;;;;;;1479482;40;7016;-65
2021/06/05 02:47:50;;;;;;;;;;;;;;;;;;1479262;40;7007;-64
2021/06/05 02:48:56;;;;;;;;;;;;;;;;;;1479463;40;7924;-64
2021/06/05 02:49:59;;;;;;;;;;;;;;;;;;1479073;40;6999;-64
2021/06/05 02:51:02;;;;;;;;;;;;;;;;;;1482268;40;7929;-64
2021/06/05 02:52:05;;;;;;;;;;;;;;;;;;1483551;40;7048;-62
2021/06/05 02:53:08;;;;;;;;;;;;;;;;;;1483506;40;7104;-63
2021/06/05 02:54:10;;;;;;;;;;;;;;;;;;1483238;40;7007;-65
2021/06/05 02:55:16;;;;;;;;;;;;;;;;;;1483504;40;7916;-63
2021/06/05 02:56:19;;;;;;;;;;;;;;;;;;1483272;40;7095;-65
2021/06/05 02:57:22;;;;;;;;;;;;;;;;;;1483387;40;7560;-66
2021/06/05 02:58:24;;;;;;;;;;;;;;;;;;1483479;40;7124;-62
2021/06/05 02:59:26;;;;;;;;;;;;;;;;;;1483534;40;7051;-66
2021/06/05 03:00:35;;;;;;;;;;;;;;;;;;1483201;40;7227;-65
2021/06/05 03:01:37;;;;;;;;;;;;;;;;;;1483273;40;7011;-63
2021/06/05 03:02:40;;;;;;;;;;;;;;;;;;1483150;40;7012;-63
2021/06/05 03:03:42;;;;;;;;;;;;;;;;;;1483201;40;7216;-64
2021/06/05 03:04:45;;;;;;;;;;;;;;;;;;1483110;40;8347;-65
2021/06/05 03:05:48;;;;;;;;;;;;;;;;;;1483412;40;7035;-62
2021/06/05 03:06:51;;;;;;;;;;;;;;;;;;1483635;40;7003;-66
2021/06/05 03:07:54;;;;;;;;;;;;;;;;;;1483398;40;7923;-62
2021/06/05 03:08:57;;;;;;;;;;;;;;;;;;1483281;40;7598;-65
2021/06/05 03:10:00;;;;;;;;;;;;;;;;;;1483362;40;7907;-62
2021/06/05 03:11:05;;;;;;;;;;;;;;;;;;1483625;40;7060;-63
2021/06/05 03:12:10;;;;;;;;;;;;;;;;;;1482469;40;8173;-63
2021/06/05 03:13:13;;;;;;;;;;;;;;;;;;1479375;40;7898;-65
2021/06/05 03:14:15;;;;;;;;;;;;;;;;;;1479108;40;7943;-66
2021/06/05 03:15:18;;;;;;;;;;;;;;;;;;1482942;40;7935;-64
2021/06/05 03:16:21;;;;;;;;;;;;;;;;;;1482725;40;7073;-65
2021/06/05 03:17:23;;;;;;;;;;;;;;;;;;1479294;40;7047;-65
2021/06/05 03:18:26;;;;;;;;;;;;;;;;;;1482988;40;7112;-65
2021/06/05 03:19:28;;;;;;;;;;;;;;;;;;1479761;40;7111;-64
2021/06/05 03:20:41;;;;;;;;;;;;;;;;;;1479212;40;7039;-65
2021/06/05 03:21:43;;;;;;;;;;;;;;;;;;1481134;40;7943;-62
2021/06/05 03:22:46;;;;;;;;;;;;;;;;;;1482486;40;7931;-65
2021/06/05 03:23:49;;;;;;;;;;;;;;;;;;1479050;40;7144;-66
2021/06/05 03:24:52;;;;;;;;;;;;;;;;;;1478940;40;7863;-63
2021/06/05 03:25:55;;;;;;;;;;;;;;;;;;1478994;40;7950;-63
2021/06/05 03:27:00;;;;;;;;;;;;;;;;;;1478995;40;7914;-63
2021/06/05 03:28:03;;;;;;;;;;;;;;;;;;1479113;40;7007;-63
2021/06/05 03:29:05;;;;;;;;;;;;;;;;;;1478475;40;7885;-66
2021/06/05 03:30:08;;;;;;;;;;;;;;;;;;1478948;40;6999;-65
2021/06/05 03:31:12;;;;;;;;;;;;;;;;;;1478814;40;7007;-65
2021/06/05 03:32:14;;;;;;;;;;;;;;;;;;1478684;40;8478;-65
2021/06/05 03:33:18;;;;;;;;;;;;;;;;;;1479033;40;8754;-64
2021/06/05 03:34:20;;;;;;;;;;;;;;;;;;1482672;40;7125;-64
2021/06/05 03:35:23;;;;;;;;;;;;;;;;;;1482824;40;7007;-66
2021/06/05 03:36:26;;;;;;;;;;;;;;;;;;1478417;40;7109;-67
2021/06/05 03:37:29;;;;;;;;;;;;;;;;;;1478590;40;7008;-63
2021/06/05 03:38:31;;;;;;;;;;;;;;;;;;1479253;40;7024;-65
2021/06/05 03:39:34;;;;;;;;;;;;;;;;;;1479147;40;7007;-64
2021/06/05 03:40:38;;;;;;;;;;;;;;;;;;1479280;40;7039;-63
2021/06/05 03:41:43;;;;;;;;;;;;;;;;;;1479230;40;7051;-66
2021/06/05 03:42:46;;;;;;;;;;;;;;;;;;1479148;40;7031;-67
2021/06/05 03:43:49;;;;;;;;;;;;;;;;;;1479312;40;7003;-62
2021/06/05 03:44:55;;;;;;;;;;;;;;;;;;1479462;40;7008;-67
2021/06/05 03:45:58;;;;;;;;;;;;;;;;;;1479364;40;7036;-65
2021/06/05 03:47:01;;;;;;;;;;;;;;;;;;1480503;40;8383;-65
2021/06/05 03:48:04;;;;;;;;;;;;;;;;;;1483117;40;7925;-63
2021/06/05 03:49:08;;;;;;;;;;;;;;;;;;1483291;40;7031;-63
2021/06/05 03:50:10;;;;;;;;;;;;;;;;;;1483347;40;7924;-63
2021/06/05 03:51:13;;;;;;;;;;;;;;;;;;1479071;40;7109;-63
2021/06/05 03:52:15;;;;;;;;;;;;;;;;;;1478947;40;7131;-63
2021/06/05 03:53:19;;;;;;;;;;;;;;;;;;1479565;40;7111;-63
2021/06/05 03:54:21;;;;;;;;;;;;;;;;;;1479067;40;7163;-65
2021/06/05 03:55:24;;;;;;;;;;;;;;;;;;1479115;40;7911;-65
2021/06/05 03:56:26;;;;;;;;;;;;;;;;;;1478999;40;7887;-63
2021/06/05 03:57:32;;;;;;;;;;;;;;;;;;1479384;40;7198;-64
2021/06/05 03:58:38;;;;;;;;;;;;;;;;;;1479053;40;7027;-63
2021/06/05 03:59:41;;;;;;;;;;;;;;;;;;1479294;40;7039;-65
2021/06/05 04:00:45;;;;;;;;;;;;;;;;;;1478982;40;7893;-62
2021/06/05 04:01:47;;;;;;;;;;;;;;;;;;1479238;40;7056;-61
2021/06/05 04:02:50;;;;;;;;;;;;;;;;;;1479096;40;7136;-63
2021/06/05 04:03:54;;;;;;;;;;;;;;;;;;1479121;40;7930;-64
2021/06/05 04:04:57;;;;;;;;;;;;;;;;;;1479311;40;7887;-62
2021/06/05 04:06:00;;;;;;;;;;;;;;;;;;1479290;40;7035;-64
2021/06/05 04:07:08;;;;;;;;;;;;;;;;;;1478922;40;7407;-62
2021/06/05 04:08:12;;;;;;;;;;;;;;;;;;1479520;40;7027;-64
2021/06/05 04:09:14;;;;;;;;;;;;;;;;;;1478884;40;7910;-63
2021/06/05 04:10:17;;;;;;;;;;;;;;;;;;1478860;40;7007;-64
2021/06/05 04:11:20;;;;;;;;;;;;;;;;;;1479103;40;7000;-63
2021/06/05 04:12:23;;;;;;;;;;;;;;;;;;1479267;40;7008;-64
2021/06/05 04:13:25;;;;;;;;;;;;;;;;;;1478614;40;7028;-64
2021/06/05 04:14:28;;;;;;;;;;;;;;;;;;1479293;40;7083;-66
2021/06/05 04:15:31;;;;;;;;;;;;;;;;;;1478964;40;7931;-62
2021/06/05 04:16:34;;;;;;;;;;;;;;;;;;1479461;40;6999;-63
2021/06/05 04:17:36;;;;;;;;;;;;;;;;;;1480054;40;6999;-65
2021/06/05 04:18:39;;;;;;;;;;;;;;;;;;1483183;40;7027;-64
2021/06/05 04:19:42;;;;;;;;;;;;;;;;;;1478496;40;7012;-64
2021/06/05 04:20:44;;;;;;;;;;;;;;;;;;1482162;40;7935;-64
2021/06/05 04:21:47;;;;;;;;;;;;;;;;;;1485036;40;7027;-64
2021/06/05 04:22:49;;;;;;;;;;;;;;;;;;1482217;40;8074;-63
2021/06/05 04:23:52;;;;;;;;;;;;;;;;;;1478930;40;7012;-66
2021/06/05 04:24:54;;;;;;;;;;;;;;;;;;1478495;40;7013;-62
2021/06/05 04:25:57;;;;;;;;;;;;;;;;;;1478926;40;7028;-63
2021/06/05 04:26:59;;;;;;;;;;;;;;;;;;1479056;40;6999;-66
2021/06/05 04:28:03;;;;;;;;;;;;;;;;;;1478822;40;7111;-66
2021/06/05 04:29:05;;;;;;;;;;;;;;;;;;1481561;40;7066;-64
2021/06/05 04:30:11;;;;;;;;;;;;;;;;;;1478524;40;7035;-66
2021/06/05 04:31:13;;;;;;;;;;;;;;;;;;1479082;40;7014;-62
2021/06/05 04:32:16;;;;;;;;;;;;;;;;;;1479121;40;7047;-65
2021/06/05 04:33:20;;;;;;;;;;;;;;;;;;1479132;40;6999;-62
2021/06/05 04:34:23;;;;;;;;;;;;;;;;;;1478200;40;6999;-64
2021/06/05 04:35:25;;;;;;;;;;;;;;;;;;1479377;40;7907;-64
2021/06/05 04:36:28;;;;;;;;;;;;;;;;;;1478385;40;7930;-63
2021/06/05 04:37:30;;;;;;;;;;;;;;;;;;1478393;40;7898;-62
2021/06/05 04:38:32;;;;;;;;;;;;;;;;;;1479112;40;6999;-64
2021/06/05 04:39:35;;;;;;;;;;;;;;;;;;1479317;40;7035;-62
2021/06/05 04:40:39;;;;;;;;;;;;;;;;;;1478787;40;7039;-65
2021/06/05 04:41:42;;;;;;;;;;;;;;;;;;1478848;40;7027;-62
2021/06/05 04:42:45;;;;;;;;;;;;;;;;;;1478817;40;7027;-64
2021/06/05 04:43:48;;;;;;;;;;;;;;;;;;1478906;40;7000;-64
2021/06/05 04:44:50;;;;;;;;;;;;;;;;;;1479035;40;7016;-62
2021/06/05 04:45:53;;;;;;;;;;;;;;;;;;1478976;40;7015;-64
2021/06/05 04:46:55;;;;;;;;;;;;;;;;;;1479836;40;7007;-63
2021/06/05 04:47:58;;;;;;;;;;;;;;;;;;1483301;40;7214;-64
2021/06/05 04:49:01;;;;;;;;;;;;;;;;;;1483096;40;7051;-64
2021/06/05 04:50:06;;;;;;;;;;;;;;;;;;1483075;40;7043;-67
2021/06/05 04:51:08;;;;;;;;;;;;;;;;;;1479098;40;7056;-63
2021/06/05 04:52:11;;;;;;;;;;;;;;;;;;1478801;40;8409;-65
2021/06/05 04:53:13;;;;;;;;;;;;;;;;;;1479049;40;7174;-62
2021/06/05 04:54:16;;;;;;;;;;;;;;;;;;1478954;40;7083;-64
2021/06/05 04:55:19;;;;;;;;;;;;;;;;;;1479383;40;7887;-63
2021/06/05 04:56:31;;;;;;;;;;;;;;;;;;1478897;40;7171;-62
2021/06/05 04:57:34;;;;;;;;;;;;;;;;;;1479371;40;7007;-63
2021/06/05 04:58:36;;;;;;;;;;;;;;;;;;1478778;40;7094;-63
2021/06/05 04:59:38;;;;;;;;;;;;;;;;;;1479328;40;7112;-65
2021/06/05 05:00:43;;;;;;;;;;;;;;;;;;1479108;40;7925;-65
2021/06/05 05:01:45;;;;;;;;;;;;;;;;;;1479317;40;7132;-63
2021/06/05 05:02:48;;;;;;;;;;;;;;;;;;1478541;40;7047;-62
2021/06/05 05:03:50;;;;;;;;;;;;;;;;;;1478573;40;7217;-66
2021/06/05 05:04:53;;;;;;;;;;;;;;;;;;1479191;40;8295;-65
2021/06/05 05:05:56;;;;;;;;;;;;;;;;;;1479085;40;7000;-65
2021/06/05 05:06:59;;;;;;;;;;;;;;;;;;1479127;40;8180;-63
2021/06/05 05:08:01;;;;;;;;;;;;;;;;;;1478870;40;7020;-64
2021/06/05 05:09:06;;;;;;;;;;;;;;;;;;1478870;40;7112;-65
2021/06/05 05:10:09;;;;;;;;;;;;;;;;;;1479062;40;7013;-64
2021/06/05 05:11:11;;;;;;;;;;;;;;;;;;1479036;40;7007;-64
2021/06/05 05:12:14;;;;;;;;;;;;;;;;;;1478959;40;7880;-64
2021/06/05 05:13:21;;;;;;;;;;;;;;;;;;1479211;40;7004;-65
2021/06/05 05:14:24;;;;;;;;;;;;;;;;;;1480908;40;7123;-65
2021/06/05 05:15:26;;;;;;;;;;;;;;;;;;1483172;40;7012;-65
2021/06/05 05:16:29;;;;;;;;;;;;;;;;;;1483479;40;7039;-65
2021/06/05 05:17:33;;;;;;;;;;;;;;;;;;1481778;40;7031;-64
2021/06/05 05:18:38;;;;;;;;;;;;;;;;;;1478878;40;7044;-64
2021/06/05 05:19:41;;;;;;;;;;;;;;;;;;1481618;40;8156;-65
2021/06/05 05:20:44;;;;;;;;;;;;;;;;;;1480918;40;7003;-63
2021/06/05 05:21:46;;;;;;;;;;;;;;;;;;1481385;40;7007;-66
2021/06/05 05:22:48;;;;;;;;;;;;;;;;;;1481821;40;6999;-65
2021/06/05 05:23:52;;;;;;;;;;;;;;;;;;1478852;40;7048;-63
2021/06/05 05:24:54;;;;;;;;;;;;;;;;;;1479652;40;7912;-65
2021/06/05 05:25:58;;;;;;;;;;;;;;;;;;1482725;40;7195;-66
2021/06/05 05:27:01;;;;;;;;;;;;;;;;;;1482881;40;7035;-64
2021/06/05 05:28:04;;;;;;;;;;;;;;;;;;1480777;40;8071;-62
2021/06/05 05:29:06;;;;;;;;;;;;;;;;;;1478604;40;8002;-66
2021/06/05 05:30:12;;;;;;;;;;;;;;;;;;1478303;40;7920;-64
2021/06/05 05:31:16;;;;;;;;;;;;;;;;;;1478786;40;7915;-63
2021/06/05 05:32:19;;;;;;;;;;;;;;;;;;1478708;40;7031;-64
2021/06/05 05:33:22;;;;;;;;;;;;;;;;;;1479025;40;7927;-64
2021/06/05 05:34:24;;;;;;;;;;;;;;;;;;1478926;40;7035;-67
2021/06/05 05:35:27;;;;;;;;;;;;;;;;;;1479263;40;7000;-65
2021/06/05 05:36:32;;;;;;;;;;;;;;;;;;1478834;40;7007;-65
2021/06/05 05:37:35;;;;;;;;;;;;;;;;;;1480335;40;6984;-64
2021/06/05 05:38:38;;;;;;;;;;;;;;;;;;1483091;40;8866;-66
2021/06/05 05:39:40;;;;;;;;;;;;;;;;;;1483471;40;7004;-61
2021/06/05 05:40:43;;;;;;;;;;;;;;;;;;1483589;40;7003;-66
2021/06/05 05:41:48;;;;;;;;;;;;;;;;;;1483417;40;8042;-63
2021/06/05 05:42:51;;;;;;;;;;;;;;;;;;1482892;40;7109;-62
2021/06/05 05:43:54;;;;;;;;;;;;;;;;;;1483519;40;7026;-67
2021/06/05 05:44:56;;;;;;;;;;;;;;;;;;1483533;40;7031;-65
2021/06/05 05:45:58;;;;;;;;;;;;;;;;;;1483350;40;7943;-68
2021/06/05 05:47:05;;;;;;;;;;;;;;;;;;1481088;40;7039;-64
2021/06/05 05:48:09;;;;;;;;;;;;;;;;;;1479070;40;7842;-65
2021/06/05 05:49:12;;;;;;;;;;;;;;;;;;1478949;40;8461;-62
2021/06/05 05:50:17;;;;;;;;;;;;;;;;;;1478861;40;7178;-65
2021/06/05 05:51:20;;;;;;;;;;;;;;;;;;1483133;40;7211;-63
2021/06/05 05:52:23;;;;;;;;;;;;;;;;;;1483445;40;7111;-63
2021/06/05 05:53:25;;;;;;;;;;;;;;;;;;1483711;40;7000;-66
2021/06/05 05:54:28;;;;;;;;;;;;;;;;;;1483859;40;7016;-65
2021/06/05 05:55:30;;;;;;;;;;;;;;;;;;1484131;40;7019;-65
2021/06/05 05:56:34;;;;;;;;;;;;;;;;;;1484210;40;7003;-66
2021/06/05 05:57:37;;;;;;;;;;;;;;;;;;1483821;40;7481;-64
2021/06/05 05:58:41;;;;;;;;;;;;;;;;;;1480029;40;7913;-63
2021/06/05 05:59:44;;;;;;;;;;;;;;;;;;1479727;40;7203;-65
2021/06/05 06:00:47;;;;;;;;;;;;;;;;;;1479305;40;7089;-63
2021/06/05 06:01:50;;;;;;;;;;;;;;;;;;1479784;40;7044;-63
2021/06/05 06:02:52;;;;;;;;;;;;;;;;;;1479624;40;7007;-66
2021/06/05 06:03:56;;;;;;;;;;;;;;;;;;1479752;40;7895;-65
2021/06/05 06:04:59;;;;;;;;;;;;;;;;;;1480193;39;7169;-62
2021/06/05 06:06:01;;;;;;;;;;;;;;;;;;1479037;40;7873;-63
2021/06/05 06:07:04;;;;;;;;;;;;;;;;;;1481341;40;7043;-64
2021/06/05 06:08:07;;;;;;;;;;;;;;;;;;1478933;40;6996;-66
2021/06/05 06:09:10;;;;;;;;;;;;;;;;;;1479640;40;7027;-65
2021/06/05 06:10:14;;;;;;;;;;;;;;;;;;1479827;40;7069;-63
2021/06/05 06:11:17;;;;;;;;;;;;;;;;;;1479463;40;6999;-63
2021/06/05 06:12:19;;;;;;;;;;;;;;;;;;1479819;40;7048;-66
2021/06/05 06:13:22;;;;;;;;;;;;;;;;;;1479961;40;6999;-64
2021/06/05 06:14:24;;;;;;;;;;;;;;;;;;1479516;40;7593;-63
2021/06/05 06:15:28;;;;;;;;;;;;;;;;;;1479386;40;7122;-64
2021/06/05 06:16:30;;;;;;;;;;;;;;;;;;1479680;40;7924;-62
2021/06/05 06:17:33;;;;;;;;;;;;;;;;;;1480298;40;7008;-63
2021/06/05 06:18:36;;;;;;;;;;;;;;;;;;1483310;40;7004;-66
2021/06/05 06:19:40;;;;;;;;;;;;;;;;;;1479223;40;7975;-63
2021/06/05 06:20:45;;;;;;;;;;;;;;;;;;1479224;40;7007;-65
2021/06/05 06:21:47;;;;;;;;;;;;;;;;;;1481685;40;7211;-64
2021/06/05 06:22:50;;;;;;;;;;;;;;;;;;1482262;40;6999;-65
2021/06/05 06:23:52;;;;;;;;;;;;;;;;;;1479061;40;8851;-65
2021/06/05 06:24:55;;;;;;;;;;;;;;;;;;1479157;40;7035;-63
2021/06/05 06:25:59;;;;;;;;;;;;;;;;;;1479344;40;7052;-66
2021/06/05 06:27:01;;;;;;;;;;;;;;;;;;1479212;40;7222;-65
2021/06/05 06:28:04;;;;;;;;;;;;;;;;;;1483555;40;7015;-64
2021/06/05 06:29:15;;;;;;;;;;;;;;;;;;1479448;40;7007;-66
2021/06/05 06:30:20;;;;;;;;;;;;;;;;;;1479310;40;7122;-63
2021/06/05 06:31:23;;;;;;;;;;;;;;;;;;1479397;40;7087;-65
2021/06/05 06:32:26;;;;;;;;;;;;;;;;;;1480086;40;7185;-63
2021/06/05 06:33:28;;;;;;;;;;;;;;;;;;1483562;40;6999;-67
2021/06/05 06:34:31;;;;;;;;;;;;;;;;;;1483633;40;8559;-65
2021/06/05 06:35:35;;;;;;;;;;;;;;;;;;1483771;40;7134;-63
2021/06/05 06:36:39;;;;;;;;;;;;;;;;;;1482782;40;7935;-68
2021/06/05 06:37:42;;;;;;;;;;;;;;;;;;1483290;40;7027;-63
2021/06/05 06:38:46;;;;;;;;;;;;;;;;;;1483845;40;7003;-67
2021/06/05 06:39:48;;;;;;;;;;;;;;;;;;1483766;40;7378;-68
2021/06/05 06:40:51;;;;;;;;;;;;;;;;;;1483459;40;7003;-65
2021/06/05 06:41:54;;;;;;;;;;;;;;;;;;1483565;40;7046;-63
2021/06/05 06:42:57;;;;;;;;;;;;;;;;;;1483678;40;7035;-64
2021/06/05 06:44:02;;;;;;;;;;;;;;;;;;1483719;40;7125;-65
2021/06/05 06:45:05;;;;;;;;;;;;;;;;;;1483446;40;7016;-67
2021/06/05 06:46:17;;;;;;;;;;;;;;;;;;1487178;40;7277;-67
2021/06/05 06:47:19;;;;;;;;;;;;;;;;;;1483689;40;7007;-62
2021/06/05 06:48:22;;;;;;;;;;;;;;;;;;1479508;40;7903;-66
2021/06/05 06:49:25;;;;;;;;;;;;;;;;;;1479560;40;6999;-64
2021/06/05 06:50:29;;;;;;;;;;;;;;;;;;1480546;40;7000;-65
2021/06/05 06:51:32;;;;;;;;;;;;;;;;;;1483604;40;7007;-67
2021/06/05 06:52:34;;;;;;;;;;;;;;;;;;1483849;40;7007;-63
2021/06/05 06:53:37;;;;;;;;;;;;;;;;;;1484177;40;7008;-63
2021/06/05 06:54:39;;;;;;;;;;;;;;;;;;1484117;40;7007;-65
2021/06/05 06:55:41;;;;;;;;;;;;;;;;;;1483650;40;7007;-65
2021/06/05 06:56:44;;;;;;;;;;;;;;;;;;1483803;40;7146;-65
2021/06/05 06:57:47;;;;;;;;;;;;;;;;;;1483631;40;7134;-62
2021/06/05 06:58:50;;;;;;;;;;;;;;;;;;1483626;40;7121;-66
2021/06/05 06:59:53;;;;;;;;;;;;;;;;;;1483513;40;7915;-65
2021/06/05 07:00:55;;;;;;;;;;;;;;;;;;1483525;40;7007;-65
2021/06/05 07:01:58;;;;;;;;;;;;;;;;;;1483602;40;7943;-64
2021/06/05 07:03:00;;;;;;;;;;;;;;;;;;1483616;40;7012;-63
2021/06/05 07:04:04;;;;;;;;;;;;;;;;;;1482963;40;7042;-64
2021/06/05 07:05:07;;;;;;;;;;;;;;;;;;1479778;40;7016;-62
2021/06/05 07:06:10;;;;;;;;;;;;;;;;;;1479606;40;7027;-65
2021/06/05 07:07:13;;;;;;;;;;;;;;;;;;1479423;40;7007;-65
2021/06/05 07:08:27;;;;;;;;;;;;;;;;;;1479375;40;7895;-63
2021/06/05 07:09:32;;;;;;;;;;;;;;;;;;1479480;40;7044;-65
2021/06/05 07:10:34;;;;;;;;;;;;;;;;;;1479482;40;6996;-65
2021/06/05 07:11:37;;;;;;;;;;;;;;;;;;1479331;40;7904;-65
2021/06/05 07:12:39;;;;;;;;;;;;;;;;;;1479341;40;7916;-66
2021/06/05 07:13:43;;;;;;;;;;;;;;;;;;1479812;40;7016;-66
2021/06/05 07:14:45;;;;;;;;;;;;;;;;;;1479645;40;7951;-64
2021/06/05 07:15:48;;;;;;;;;;;;;;;;;;1479683;40;7048;-65
2021/06/05 07:16:51;;;;;;;;;;;;;;;;;;1479725;40;7230;-66
2021/06/05 07:17:54;;;;;;;;;;;;;;;;;;1482378;40;7000;-66
2021/06/05 07:18:57;;;;;;;;;;;;;;;;;;1482257;40;6999;-65
2021/06/05 07:19:59;;;;;;;;;;;;;;;;;;1486135;40;7123;-65
2021/06/05 07:21:03;;;;;;;;;;;;;;;;;;1483455;40;7012;-65
2021/06/05 07:22:05;;;;;;;;;;;;;;;;;;1483090;40;7015;-64
2021/06/05 07:23:08;;;;;;;;;;;;;;;;;;1480635;40;7062;-67
2021/06/05 07:24:10;;;;;;;;;;;;;;;;;;1479206;40;7914;-66
2021/06/05 07:25:13;;;;;;;;;;;;;;;;;;1479131;40;7891;-66
2021/06/05 07:26:18;;;;;;;;;;;;;;;;;;1482273;40;7052;-64